Time;durP1;ratioP1;P1;durP2;ratioP2;P2;SDS_P1;SDS_P2;PMS_P1;PMS_P2;Temp;Humidity;BMP_temperature;BMP_pressure;BME280_temperature;BME280_humidity;BME280_pressure;Samples;Min_cycle;Max_cycle;Signal;HPM_P1;HPM_P2
2023/04/12 00:01:34;;;;;;;9.18;3.95;;;6.00;99.90;;;;;;5004015;28;20512;-69
2023/04/12 00:04:03;;;;;;;10.35;4.38;;;6.00;99.90;;;;;;5010191;28;20112;-69
2023/04/12 00:06:31;;;;;;;9.68;4.20;;;6.00;99.90;;;;;;5009989;28;20017;-69
2023/04/12 00:09:03;;;;;;;11.15;4.57;;;6.00;99.90;;;;;;5008793;28;20022;-69
2023/04/12 00:11:30;;;;;;;8.70;4.45;;;6.00;99.90;;;;;;5008968;28;20105;-68
2023/04/12 00:13:59;;;;;;;9.25;4.28;;;6.00;99.90;;;;;;5015591;28;20359;-69
2023/04/12 00:16:25;;;;;;;13.60;5.15;;;6.00;99.90;;;;;;5009513;28;20472;-70
2023/04/12 00:18:51;;;;;;;12.45;4.97;;;5.90;99.90;;;;;;5008605;28;20109;-69
2023/04/12 00:21:18;;;;;;;13.95;5.18;;;5.90;99.90;;;;;;5005924;28;20423;-69
2023/04/12 00:23:45;;;;;;;8.65;4.78;;;5.90;99.90;;;;;;5037665;28;20029;-69
2023/04/12 00:26:11;;;;;;;10.60;4.25;;;5.90;99.90;;;;;;5016110;28;20037;-70
2023/04/12 00:28:37;;;;;;;9.63;4.38;;;5.90;99.90;;;;;;5010986;28;20062;-69
2023/04/12 00:31:04;;;;;;;6.93;4.15;;;5.80;99.90;;;;;;5013611;28;20497;-70
2023/04/12 00:33:30;;;;;;;6.07;4.35;;;5.80;99.90;;;;;;5027535;28;20051;-69
2023/04/12 00:35:56;;;;;;;9.40;4.60;;;5.80;99.90;;;;;;5013114;28;20084;-69
2023/04/12 00:38:22;;;;;;;15.02;5.20;;;5.80;99.90;;;;;;5011296;28;20018;-69
2023/04/12 00:40:47;;;;;;;8.18;4.00;;;5.80;99.90;;;;;;5017576;28;20081;-69
2023/04/12 00:43:17;;;;;;;7.82;4.28;;;5.70;99.90;;;;;;5011923;28;20552;-69
2023/04/12 00:45:46;;;;;;;7.90;3.95;;;5.70;99.90;;;;;;5009544;28;20061;-69
2023/04/12 00:48:12;;;;;;;10.95;4.53;;;5.70;99.90;;;;;;5011093;28;20569;-69
2023/04/12 00:50:40;;;;;;;11.30;4.28;;;5.70;99.90;;;;;;5010882;28;20840;-70
2023/04/12 00:53:08;;;;;;;10.38;4.35;;;5.60;99.90;;;;;;5009524;28;20498;-69
2023/04/12 00:55:34;;;;;;;11.38;4.03;;;5.60;99.90;;;;;;5010215;28;20553;-69
2023/04/12 00:58:02;;;;;;;7.43;3.97;;;5.60;99.90;;;;;;5010885;28;20029;-69
2023/04/12 01:00:28;;;;;;;8.48;3.50;;;5.60;99.90;;;;;;5014527;28;20056;-69
2023/04/12 01:02:53;;;;;;;8.90;3.30;;;5.60;99.90;;;;;;5009715;28;20029;-69
2023/04/12 01:05:22;;;;;;;11.93;3.47;;;5.50;99.90;;;;;;5009332;28;20113;-69
2023/04/12 01:07:53;;;;;;;6.10;2.80;;;5.50;99.90;;;;;;5010717;28;20037;-69
2023/04/12 01:10:45;;;;;;;7.10;4.07;;;5.50;99.90;;;;;;5013183;28;20072;-69
2023/04/12 01:13:26;;;;;;;7.80;2.90;;;5.50;99.90;;;;;;5007945;28;20105;-69
2023/04/12 01:16:15;;;;;;;7.20;2.92;;;5.50;99.90;;;;;;5011251;28;20038;-69
2023/04/12 01:18:44;;;;;;;5.25;2.90;;;5.50;99.90;;;;;;5008353;28;20029;-69
2023/04/12 01:21:17;;;;;;;7.35;3.17;;;5.50;99.90;;;;;;4989261;28;20129;-69
2023/04/12 01:24:06;;;;;;;5.53;2.67;;;5.50;99.90;;;;;;5038363;28;20033;-69
2023/04/12 01:26:45;;;;;;;7.03;3.17;;;5.50;99.90;;;;;;5049944;28;20506;-69
2023/04/12 01:29:14;;;;;;;6.07;3.05;;;5.50;99.90;;;;;;5013666;28;20022;-68
2023/04/12 01:32:00;;;;;;;7.88;2.67;;;5.50;99.90;;;;;;5015220;28;20032;-68
2023/04/12 01:34:30;;;;;;;5.53;2.80;;;5.50;99.90;;;;;;5027102;28;20033;-68
2023/04/12 01:37:00;;;;;;;8.82;3.17;;;5.50;99.90;;;;;;5016357;28;20109;-68
2023/04/12 01:39:26;;;;;;;9.40;3.08;;;5.50;99.90;;;;;;5012630;28;20068;-69
2023/04/12 01:41:52;;;;;;;7.05;2.80;;;5.50;99.90;;;;;;5009671;28;20084;-68
2023/04/12 01:44:18;;;;;;;8.13;2.97;;;5.50;99.90;;;;;;5011310;28;20037;-68
2023/04/12 01:46:46;;;;;;;12.30;3.10;;;5.50;99.90;;;;;;5009755;28;20036;-67
2023/04/12 01:49:14;;;;;;;6.13;2.53;;;5.50;99.90;;;;;;5013675;28;20037;-68
2023/04/12 01:52:01;;;;;;;5.20;2.95;;;5.60;99.90;;;;;;5019412;28;20045;-68
2023/04/12 01:54:30;;;;;;;6.57;2.55;;;5.50;99.90;;;;;;5011805;28;20156;-70
2023/04/12 01:56:58;;;;;;;6.80;2.70;;;5.50;99.90;;;;;;5020297;28;20393;-69
2023/04/12 01:59:35;;;;;;;8.02;2.85;;;5.50;99.90;;;;;;5007686;28;20040;-69
2023/04/12 02:02:02;;;;;;;8.05;3.60;;;5.50;99.90;;;;;;5007074;28;20068;-69
2023/04/12 02:04:28;;;;;;;9.52;4.25;;;5.50;99.90;;;;;;5003431;28;20065;-69
2023/04/12 02:06:54;;;;;;;6.80;3.72;;;5.50;99.90;;;;;;5010931;28;20034;-69
2023/04/12 02:09:21;;;;;;;12.07;4.03;;;5.50;99.90;;;;;;5014103;28;20034;-68
2023/04/12 02:11:48;;;;;;;15.68;4.43;;;5.50;99.90;;;;;;5009407;28;20113;-69
2023/04/12 02:14:14;;;;;;;10.07;4.40;;;5.50;99.90;;;;;;5012746;28;20095;-68
2023/04/12 02:16:43;;;;;;;13.55;5.05;;;5.50;99.90;;;;;;5012525;28;20079;-69
2023/04/12 02:19:09;;;;;;;8.63;4.35;;;5.50;99.90;;;;;;5011484;28;20557;-69
2023/04/12 02:21:40;;;;;;;10.52;5.20;;;5.40;99.90;;;;;;5013275;28;20064;-68
2023/04/12 02:24:05;;;;;;;10.00;4.47;;;5.50;99.90;;;;;;5015980;28;20113;-68
2023/04/12 02:26:31;;;;;;;8.32;4.00;;;5.50;99.90;;;;;;5014103;28;20025;-69
2023/04/12 02:28:57;;;;;;;12.55;4.78;;;5.50;99.90;;;;;;5011197;28;20033;-68
2023/04/12 02:31:23;;;;;;;10.50;4.40;;;5.50;99.90;;;;;;5013063;28;20030;-69
2023/04/12 02:33:49;;;;;;;10.25;3.75;;;5.40;99.90;;;;;;5012473;28;20521;-68
2023/04/12 02:36:15;;;;;;;10.05;3.78;;;5.40;99.90;;;;;;5015728;28;20032;-69
2023/04/12 02:38:41;;;;;;;9.70;3.75;;;5.40;99.90;;;;;;5012302;28;20030;-69
2023/04/12 02:41:06;;;;;;;12.80;3.15;;;5.40;99.90;;;;;;5014112;28;20026;-69
2023/04/12 02:43:33;;;;;;;9.48;3.38;;;5.40;99.90;;;;;;5006689;28;20050;-69
2023/04/12 02:45:59;;;;;;;6.53;3.35;;;5.40;99.90;;;;;;5013106;28;20081;-68
2023/04/12 02:48:25;;;;;;;7.43;2.88;;;5.40;99.90;;;;;;5011648;28;20501;-69
2023/04/12 02:50:50;;;;;;;7.20;3.95;;;5.40;99.90;;;;;;5041628;28;20398;-69
2023/04/12 02:53:16;;;;;;;7.78;3.92;;;5.40;99.90;;;;;;5006934;28;20196;-69
2023/04/12 02:55:42;;;;;;;11.65;3.80;;;5.40;99.90;;;;;;5007803;28;20143;-68
2023/04/12 02:58:07;;;;;;;5.95;3.15;;;5.40;99.90;;;;;;5009493;28;20395;-69
2023/04/12 03:00:33;;;;;;;8.10;3.28;;;5.40;99.90;;;;;;5011661;28;20014;-69
2023/04/12 03:03:01;;;;;;;8.52;3.45;;;5.40;99.90;;;;;;5010389;28;20061;-69
2023/04/12 03:05:27;;;;;;;7.03;3.50;;;5.40;99.90;;;;;;5011313;28;20048;-69
2023/04/12 03:07:53;;;;;;;6.38;3.28;;;5.40;99.90;;;;;;5013652;28;20045;-69
2023/04/12 03:10:19;;;;;;;8.43;2.80;;;5.40;99.90;;;;;;5014863;28;20516;-69
2023/04/12 03:12:45;;;;;;;9.23;3.78;;;5.40;99.90;;;;;;5013572;28;20030;-69
2023/04/12 03:15:10;;;;;;;7.40;2.80;;;5.40;99.90;;;;;;5017843;28;20053;-69
2023/04/12 03:17:36;;;;;;;8.02;2.80;;;5.40;99.90;;;;;;5010153;28;20029;-69
2023/04/12 03:20:08;;;;;;;6.53;3.50;;;5.40;99.90;;;;;;5007057;28;20419;-69
2023/04/12 03:22:35;;;;;;;7.78;3.28;;;5.30;99.90;;;;;;5010985;28;20092;-69
2023/04/12 03:25:02;;;;;;;12.27;3.70;;;5.40;99.90;;;;;;5015492;28;20481;-69
2023/04/12 03:27:28;;;;;;;7.15;3.10;;;5.30;99.90;;;;;;5015360;28;20052;-69
2023/04/12 03:29:55;;;;;;;7.95;3.25;;;5.40;99.90;;;;;;5009559;28;20648;-69
2023/04/12 03:32:21;;;;;;;6.55;3.33;;;5.40;99.90;;;;;;5012972;28;20037;-68
2023/04/12 03:34:48;;;;;;;10.23;3.38;;;5.40;99.90;;;;;;5017474;28;20041;-68
2023/04/12 03:37:14;;;;;;;9.63;3.10;;;5.40;99.90;;;;;;5011911;28;20382;-68
2023/04/12 03:39:39;;;;;;;8.95;3.00;;;5.30;99.90;;;;;;5010811;28;20018;-68
2023/04/12 03:42:05;;;;;;;11.15;3.40;;;5.30;99.90;;;;;;5013741;28;20041;-69
2023/04/12 03:44:31;;;;;;;8.07;3.35;;;5.30;99.90;;;;;;5005816;28;20041;-69
2023/04/12 03:46:57;;;;;;;10.80;4.20;;;5.30;99.90;;;;;;4997183;28;20025;-68
2023/04/12 03:49:23;;;;;;;7.45;3.42;;;5.30;99.90;;;;;;5011431;28;20080;-69
2023/04/12 03:51:49;;;;;;;8.60;4.30;;;5.30;99.90;;;;;;5006171;28;20124;-69
2023/04/12 03:54:15;;;;;;;7.72;4.22;;;5.30;99.90;;;;;;5010803;28;20030;-69
2023/04/12 03:56:40;;;;;;;8.30;3.60;;;5.30;99.90;;;;;;5015456;28;20048;-68
2023/04/12 03:59:06;;;;;;;8.15;3.40;;;5.30;99.90;;;;;;5008668;28;20426;-69
2023/04/12 04:01:33;;;;;;;6.97;3.50;;;5.30;99.90;;;;;;5014723;28;20113;-68
2023/04/12 04:03:59;;;;;;;14.10;4.00;;;5.30;99.90;;;;;;5006479;28;20022;-69
2023/04/12 04:06:25;;;;;;;9.98;3.47;;;5.30;99.90;;;;;;5013461;28;20556;-69
2023/04/12 04:08:51;;;;;;;6.85;3.47;;;5.30;99.90;;;;;;5021076;28;20418;-69
2023/04/12 04:11:17;;;;;;;8.50;3.30;;;5.20;99.90;;;;;;5003596;28;20033;-69
2023/04/12 04:13:42;;;;;;;8.65;3.10;;;5.30;99.90;;;;;;5033738;28;20030;-69
2023/04/12 04:16:11;;;;;;;7.95;2.70;;;5.30;99.90;;;;;;5011369;28;20121;-69
2023/04/12 04:18:37;;;;;;;6.93;2.30;;;5.30;99.90;;;;;;5012619;28;20151;-68
2023/04/12 04:21:03;;;;;;;9.27;3.22;;;5.20;99.90;;;;;;5014768;28;20116;-69
2023/04/12 04:23:37;;;;;;;6.47;2.92;;;5.20;99.90;;;;;;5015750;28;20176;-69
2023/04/12 04:26:09;;;;;;;7.25;2.58;;;5.20;99.90;;;;;;5021893;28;20514;-69
2023/04/12 04:28:41;;;;;;;7.40;2.40;;;5.20;99.90;;;;;;5028803;28;20129;-69
2023/04/12 04:31:09;;;;;;;5.38;2.17;;;5.30;99.90;;;;;;5026797;28;20030;-69
2023/04/12 04:33:35;;;;;;;8.73;3.08;;;5.20;99.90;;;;;;5023143;28;20088;-68
2023/04/12 04:36:03;;;;;;;9.55;2.90;;;5.20;99.90;;;;;;5016589;28;20057;-69
2023/04/12 04:38:31;;;;;;;9.68;3.42;;;5.20;99.90;;;;;;5040154;28;20036;-68
2023/04/12 04:41:01;;;;;;;7.20;2.78;;;5.30;99.90;;;;;;5010902;28;20037;-69
2023/04/12 04:43:32;;;;;;;7.90;3.23;;;5.30;99.90;;;;;;5013720;28;20030;-68
2023/04/12 04:45:59;;;;;;;;;;;5.30;99.90;;;;;;5010331;28;20041;-69
2023/04/12 04:48:25;;;;;;;11.65;2.75;;;5.30;99.90;;;;;;5010506;28;20430;-69
2023/04/12 04:50:52;;;;;;;6.35;2.92;;;5.20;99.90;;;;;;5013313;28;20030;-68
2023/04/12 04:53:20;;;;;;;8.77;3.15;;;5.30;99.90;;;;;;5012530;28;21166;-69
2023/04/12 04:55:46;;;;;;;7.03;2.63;;;5.30;99.90;;;;;;5013158;28;20048;-69
2023/04/12 04:58:13;;;;;;;8.55;2.78;;;5.30;99.90;;;;;;5039990;28;20032;-68
2023/04/12 05:00:39;;;;;;;7.85;2.47;;;5.30;99.90;;;;;;5013793;28;20035;-68
2023/04/12 05:03:05;;;;;;;9.93;2.53;;;5.30;99.90;;;;;;5023354;28;20018;-69
2023/04/12 05:05:31;;;;;;;6.75;2.63;;;5.30;99.90;;;;;;5027239;28;20033;-69
2023/04/12 05:07:57;;;;;;;10.68;2.70;;;5.30;99.90;;;;;;5019681;28;20343;-68
2023/04/12 05:10:23;;;;;;;8.50;2.60;;;5.30;99.90;;;;;;5010968;28;20039;-69
2023/04/12 05:12:49;;;;;;;7.90;2.75;;;5.30;99.90;;;;;;5018668;28;20333;-69
2023/04/12 05:15:17;;;;;;;8.32;2.50;;;5.30;99.90;;;;;;5012885;28;20034;-69
2023/04/12 05:17:43;;;;;;;7.82;2.70;;;5.30;99.90;;;;;;5011225;28;20118;-69
2023/04/12 05:20:12;;;;;;;9.60;2.53;;;5.30;99.90;;;;;;5032538;28;20125;-69
2023/04/12 05:22:38;;;;;;;5.10;2.70;;;5.30;99.90;;;;;;5016827;28;20100;-69
2023/04/12 05:25:04;;;;;;;7.13;2.78;;;5.30;99.90;;;;;;5019322;28;20383;-69
2023/04/12 05:27:31;;;;;;;7.28;2.95;;;5.30;99.90;;;;;;5015530;28;20049;-69
2023/04/12 05:29:56;;;;;;;8.10;2.95;;;5.30;99.90;;;;;;5015071;28;20030;-69
2023/04/12 05:32:24;;;;;;;6.85;2.35;;;5.40;99.90;;;;;;5010008;28;20354;-68
2023/04/12 05:34:49;;;;;;;8.45;2.60;;;5.40;99.90;;;;;;5016867;28;20030;-68
2023/04/12 05:37:15;;;;;;;7.55;2.85;;;5.50;99.90;;;;;;5019005;28;20079;-69
2023/04/12 05:39:41;;;;;;;10.63;2.90;;;5.50;99.90;;;;;;5019968;28;20029;-69
2023/04/12 05:42:07;;;;;;;6.15;2.40;;;5.50;99.90;;;;;;5015763;28;20037;-68
2023/04/12 05:44:37;;;;;;;8.30;2.92;;;5.60;99.90;;;;;;5016199;28;20048;-68
2023/04/12 05:47:04;;;;;;;8.10;2.63;;;5.50;99.90;;;;;;5013152;28;20026;-68
2023/04/12 05:49:30;;;;;;;7.22;2.30;;;5.60;99.90;;;;;;5015290;28;20498;-68
2023/04/12 05:51:57;;;;;;;5.78;2.53;;;5.60;99.90;;;;;;5016356;28;20026;-69
2023/04/12 05:54:24;;;;;;;6.15;2.42;;;5.70;99.90;;;;;;5015281;28;20087;-68
2023/04/12 05:56:51;;;;;;;11.68;2.55;;;5.70;99.90;;;;;;5016441;28;20034;-68
2023/04/12 05:59:18;;;;;;;7.82;2.22;;;5.70;99.90;;;;;;5017915;28;20106;-68
2023/04/12 06:01:44;;;;;;;5.90;2.20;;;5.70;99.90;;;;;;5013402;28;20030;-69
2023/04/12 06:04:10;;;;;;;9.23;2.80;;;5.80;99.90;;;;;;5013516;28;20029;-68
2023/04/12 06:06:36;;;;;;;6.35;2.42;;;5.80;99.90;;;;;;5016570;28;20036;-68
2023/04/12 06:09:03;;;;;;;4.70;2.20;;;5.90;99.90;;;;;;5016268;28;20552;-68
2023/04/12 06:11:32;;;;;;;8.05;2.88;;;5.90;99.90;;;;;;5014507;28;20095;-68
2023/04/12 06:14:01;;;;;;;7.30;2.60;;;6.00;99.90;;;;;;5032819;28;20455;-67
2023/04/12 06:16:28;;;;;;;7.53;2.60;;;6.00;99.90;;;;;;5049974;28;20510;-69
2023/04/12 06:18:54;;;;;;;5.65;2.42;;;6.00;99.90;;;;;;5009555;28;20045;-69
2023/04/12 06:21:21;;;;;;;6.13;2.78;;;6.00;99.90;;;;;;5017146;28;20033;-69
2023/04/12 06:23:47;;;;;;;9.55;2.45;;;6.10;99.90;;;;;;5020658;28;20086;-70
2023/04/12 06:26:13;;;;;;;7.82;2.90;;;6.10;99.90;;;;;;5021578;28;20029;-70
2023/04/12 06:28:38;;;;;;;6.15;2.40;;;6.10;99.90;;;;;;5016677;28;20049;-69
2023/04/12 06:31:04;;;;;;;7.15;2.70;;;6.20;99.90;;;;;;5015553;28;20052;-69
2023/04/12 06:33:30;;;;;;;10.07;2.65;;;6.30;99.90;;;;;;5016479;28;20034;-70
2023/04/12 06:35:56;;;;;;;9.25;2.83;;;6.30;99.90;;;;;;5019314;28;20464;-69
2023/04/12 06:38:21;;;;;;;7.60;2.38;;;6.80;99.90;;;;;;5017167;28;20086;-69
2023/04/12 06:40:47;;;;;;;5.07;2.35;;;6.70;99.90;;;;;;5050104;28;20167;-69
2023/04/12 06:43:17;;;;;;;5.72;2.28;;;6.70;99.90;;;;;;5013474;28;20022;-70
2023/04/12 06:45:46;;;;;;;9.18;2.58;;;6.60;99.90;;;;;;5016793;28;20042;-70
2023/04/12 06:48:12;;;;;;;12.02;2.50;;;6.60;99.90;;;;;;5015426;28;20037;-69
2023/04/12 06:50:38;;;;;;;6.88;2.67;;;6.70;99.90;;;;;;5014121;28;20042;-69
2023/04/12 06:53:04;;;;;;;6.25;2.30;;;6.70;99.90;;;;;;5014650;28;20709;-69
2023/04/12 06:55:52;;;;;;;6.75;2.13;;;6.80;99.90;;;;;;5012894;28;20112;-70
2023/04/12 06:58:18;;;;;;;4.82;2.10;;;6.90;99.90;;;;;;5010953;28;20030;-69
2023/04/12 07:00:44;;;;;;;6.82;2.60;;;7.00;99.90;;;;;;5010612;28;20028;-69
2023/04/12 07:03:10;;;;;;;6.57;2.67;;;7.10;99.90;;;;;;5014028;28;20033;-69
2023/04/12 07:05:39;;;;;;;8.35;2.92;;;7.20;99.90;;;;;;5014604;28;20034;-69
2023/04/12 07:08:07;;;;;;;5.90;2.17;;;7.30;99.90;;;;;;5011538;28;20065;-69
2023/04/12 07:10:34;;;;;;;5.90;2.70;;;7.50;99.90;;;;;;5010475;28;20513;-69
2023/04/12 07:13:02;;;;;;;5.97;2.33;;;7.60;99.90;;;;;;5017561;28;20044;-70
2023/04/12 07:15:28;;;;;;;10.45;3.25;;;7.60;99.90;;;;;;5016367;28;20496;-69
2023/04/12 07:17:55;;;;;;;7.95;2.58;;;7.70;99.90;;;;;;5018405;28;20045;-69
2023/04/12 07:20:20;;;;;;;7.93;2.70;;;7.80;99.90;;;;;;5016102;28;20440;-70
2023/04/12 07:22:46;;;;;;;5.80;2.63;;;7.80;99.90;;;;;;5018038;28;20030;-69
2023/04/12 07:25:12;;;;;;;7.25;2.63;;;7.80;99.90;;;;;;5018887;28;20025;-70
2023/04/12 07:27:37;;;;;;;7.18;2.20;;;7.90;99.90;;;;;;5017307;28;20555;-67
2023/04/12 07:30:04;;;;;;;7.97;2.70;;;8.00;99.90;;;;;;5015990;28;20121;-69
2023/04/12 07:32:29;;;;;;;5.72;2.60;;;8.00;99.90;;;;;;5018570;28;20299;-68
2023/04/12 07:34:55;;;;;;;5.40;2.10;;;8.00;99.90;;;;;;5017729;28;20026;-69
2023/04/12 07:37:21;;;;;;;4.78;2.22;;;8.00;99.90;;;;;;5050963;28;20029;-68
2023/04/12 07:39:46;;;;;;;6.47;2.38;;;8.10;99.90;;;;;;5018263;28;20029;-69
2023/04/12 07:42:12;;;;;;;11.55;3.20;;;8.10;99.90;;;;;;5017126;28;20108;-68
2023/04/12 07:44:38;;;;;;;7.97;2.85;;;8.10;99.90;;;;;;5012979;28;20312;-68
2023/04/12 07:47:04;;;;;;;7.70;3.28;;;8.20;99.90;;;;;;5015852;28;20030;-69
2023/04/12 07:49:29;;;;;;;7.88;2.60;;;8.20;99.90;;;;;;5017893;28;20216;-68
2023/04/12 07:51:56;;;;;;;5.97;2.60;;;8.30;99.90;;;;;;5018580;28;20080;-69
2023/04/12 07:54:22;;;;;;;8.45;2.92;;;8.30;99.90;;;;;;5016819;28;20053;-68
2023/04/12 07:57:04;;;;;;;6.07;2.80;;;8.30;99.90;;;;;;5017855;28;20041;-69
2023/04/12 07:59:30;;;;;;;5.43;2.38;;;8.20;99.90;;;;;;5012930;28;20044;-68
2023/04/12 08:01:56;;;;;;;8.65;2.75;;;8.20;99.90;;;;;;5015601;28;20478;-69
2023/04/12 08:04:23;;;;;;;7.32;3.17;;;8.30;99.90;;;;;;5017098;28;20426;-68
2023/04/12 08:06:48;;;;;;;6.07;3.13;;;8.30;99.90;;;;;;5018576;28;20034;-68
2023/04/12 08:09:14;;;;;;;6.50;2.67;;;8.40;99.90;;;;;;5018238;28;20033;-69
2023/04/12 08:11:40;;;;;;;5.10;2.80;;;8.40;99.90;;;;;;5018314;28;20030;-68
2023/04/12 08:14:06;;;;;;;9.18;3.00;;;8.40;99.90;;;;;;5017424;28;20095;-68
2023/04/12 08:16:32;;;;;;;6.88;2.72;;;8.40;99.90;;;;;;5019648;28;20517;-68
2023/04/12 08:18:57;;;;;;;7.40;3.10;;;8.50;99.90;;;;;;5014536;28;20033;-68
2023/04/12 08:21:23;;;;;;;7.88;2.92;;;8.50;99.90;;;;;;5020757;28;20037;-68
2023/04/12 08:23:49;;;;;;;5.47;2.67;;;8.60;99.90;;;;;;5016104;28;20054;-69
2023/04/12 08:26:15;;;;;;;8.20;3.80;;;8.50;99.90;;;;;;5015800;28;20033;-68
2023/04/12 08:28:41;;;;;;;8.25;2.50;;;8.60;99.90;;;;;;5016613;28;20581;-70
2023/04/12 08:31:07;;;;;;;6.57;2.80;;;8.60;99.90;;;;;;5016879;28;20088;-68
2023/04/12 08:33:33;;;;;;;6.03;2.85;;;8.60;99.90;;;;;;5016504;28;20491;-69
2023/04/12 08:35:59;;;;;;;7.80;2.60;;;8.60;99.90;;;;;;5018926;28;20026;-70
2023/04/12 08:38:25;;;;;;;6.45;2.65;;;8.70;99.90;;;;;;5017081;28;20077;-69
2023/04/12 08:40:51;;;;;;;9.73;3.65;;;8.60;99.90;;;;;;5022902;28;20431;-70
2023/04/12 08:43:18;;;;;;;17.25;7.25;;;8.70;99.90;;;;;;5020580;28;20080;-69
2023/04/12 08:45:43;;;;;;;9.23;3.35;;;8.70;99.90;;;;;;5002686;28;20513;-70
2023/04/12 08:48:10;;;;;;;8.75;3.20;;;8.70;99.90;;;;;;5019077;28;20046;-68
2023/04/12 08:50:36;;;;;;;10.80;3.65;;;8.70;99.90;;;;;;5027202;28;20029;-69
2023/04/12 08:53:01;;;;;;;8.30;3.00;;;8.70;99.90;;;;;;5019615;28;20044;-70
2023/04/12 08:55:27;;;;;;;6.78;3.00;;;8.70;99.90;;;;;;5020497;28;20505;-68
2023/04/12 08:57:55;;;;;;;6.05;2.65;;;8.80;99.90;;;;;;5001641;28;20029;-68
2023/04/12 09:00:21;;;;;;;7.25;3.53;;;8.70;99.90;;;;;;5020501;28;20373;-68
2023/04/12 09:02:47;;;;;;;6.97;2.90;;;8.80;99.90;;;;;;5021163;28;20052;-68
2023/04/12 09:05:14;;;;;;;10.82;3.15;;;8.80;99.90;;;;;;5018454;28;20049;-68
2023/04/12 09:07:40;;;;;;;10.05;2.88;;;8.80;99.90;;;;;;5018718;28;20040;-68
2023/04/12 09:10:07;;;;;;;5.20;3.10;;;8.90;99.90;;;;;;5017195;28;20528;-67
2023/04/12 09:12:33;;;;;;;8.85;3.25;;;9.00;99.90;;;;;;5019833;28;20026;-68
2023/04/12 09:15:13;;;;;;;11.05;3.80;;;9.10;99.90;;;;;;5019106;28;20029;-68
2023/04/12 09:17:42;;;;;;;6.00;3.15;;;9.30;99.90;;;;;;5019776;28;20037;-68
2023/04/12 09:20:11;;;;;;;8.40;3.40;;;9.20;99.90;;;;;;5018201;28;20504;-68
2023/04/12 09:22:38;;;;;;;6.88;3.28;;;9.20;99.90;;;;;;5020992;28;20615;-68
2023/04/12 09:25:05;;;;;;;5.57;2.97;;;9.20;99.90;;;;;;5018678;28;20033;-68
2023/04/12 09:27:48;;;;;;;6.57;3.35;;;9.30;99.90;;;;;;5021818;28;20021;-68
2023/04/12 09:30:16;;;;;;;6.63;3.17;;;9.30;99.90;;;;;;5021825;28;20053;-68
2023/04/12 09:32:42;;;;;;;6.85;3.13;;;9.40;99.90;;;;;;5021856;28;20033;-70
2023/04/12 09:35:08;;;;;;;9.65;4.07;;;9.50;99.90;;;;;;5019185;28;20029;-69
2023/04/12 09:37:34;;;;;;;8.57;3.30;;;9.50;99.90;;;;;;5019473;28;20022;-70
2023/04/12 09:40:05;;;;;;;9.85;3.17;;;9.50;99.90;;;;;;5021107;28;20092;-68
2023/04/12 09:42:34;;;;;;;;;;;9.50;99.90;;;;;;5017953;28;20486;-68
2023/04/12 09:45:17;;;;;;;8.77;2.67;;;9.50;99.90;;;;;;5042522;28;19913;-69
2023/04/12 09:47:43;;;;;;;10.73;3.25;;;9.50;99.90;;;;;;5022506;28;20026;-69
2023/04/12 09:50:28;;;;;;;7.75;2.85;;;9.60;99.90;;;;;;5018417;28;20022;-69
2023/04/12 09:52:55;;;;;;;11.65;3.28;;;9.60;99.90;;;;;;5021673;28;20029;-70
2023/04/12 09:55:24;;;;;;;7.72;3.20;;;9.60;99.90;;;;;;5018909;28;20120;-69
2023/04/12 09:57:51;;;;;;;8.98;2.97;;;9.60;99.90;;;;;;5019213;28;20094;-70
2023/04/12 10:00:17;;;;;;;7.63;3.00;;;9.60;99.90;;;;;;5001798;28;20469;-68
2023/04/12 10:02:47;;;;;;;11.10;3.47;;;9.50;99.90;;;;;;5021324;28;20904;-70
2023/04/12 10:05:17;;;;;;;6.78;2.50;;;9.60;99.90;;;;;;5018650;28;20041;-69
2023/04/12 10:07:43;;;;;;;8.30;3.78;;;9.60;99.90;;;;;;5020430;28;20041;-68
2023/04/12 10:10:13;;;;;;;7.60;2.67;;;9.60;99.90;;;;;;5017108;28;20037;-69
2023/04/12 10:12:40;;;;;;;9.45;3.17;;;9.60;99.90;;;;;;5053019;28;20047;-68
2023/04/12 10:15:17;;;;;;;6.75;2.88;;;9.70;99.90;;;;;;5011643;28;20410;-68
2023/04/12 10:17:48;;;;;;;7.47;3.10;;;9.80;99.90;;;;;;5020307;28;20037;-69
2023/04/12 10:20:15;;;;;;;5.68;2.40;;;9.70;99.90;;;;;;5006229;28;20026;-69
2023/04/12 10:22:42;;;;;;;7.88;2.75;;;9.80;99.90;;;;;;5021817;28;20033;-69
2023/04/12 10:25:21;;;;;;;8.40;2.85;;;9.80;99.90;;;;;;5021052;28;20794;-69
2023/04/12 10:27:47;;;;;;;5.88;2.78;;;9.90;99.90;;;;;;5023619;28;20036;-69
2023/04/12 10:30:21;;;;;;;7.45;2.83;;;10.00;99.90;;;;;;5020150;28;20489;-69
2023/04/12 10:33:10;;;;;;;6.53;2.33;;;10.10;99.90;;;;;;5017340;28;20098;-69
2023/04/12 10:35:51;;;;;;;6.35;2.20;;;10.10;99.90;;;;;;5019990;28;20067;-70
2023/04/12 10:38:17;;;;;;;5.65;2.58;;;10.20;99.90;;;;;;5019645;28;20100;-70
2023/04/12 10:41:14;;;;;;;8.93;2.75;;;10.20;99.90;;;;;;5021819;28;20312;-69
2023/04/12 10:43:41;;;;;;;8.23;2.35;;;10.30;99.90;;;;;;5019869;28;20025;-68
2023/04/12 10:46:07;;;;;;;5.32;2.17;;;10.30;99.90;;;;;;5017798;28;20026;-68
2023/04/12 10:48:38;;;;;;;5.38;2.10;;;10.30;99.90;;;;;;5018797;28;20710;-69
2023/04/12 10:51:28;;;;;;;7.85;2.40;;;10.30;99.90;;;;;;5018955;28;20436;-69
2023/04/12 10:54:16;;;;;;;7.28;2.35;;;10.20;99.90;;;;;;5020827;28;20029;-69
2023/04/12 10:56:43;;;;;;;6.55;2.55;;;10.10;99.90;;;;;;5019536;28;20064;-69
2023/04/12 10:59:10;;;;;;;8.07;2.80;;;10.00;99.90;;;;;;5024571;28;20033;-69
2023/04/12 11:01:38;;;;;;;5.78;2.42;;;10.00;99.90;;;;;;5019952;28;20053;-68
2023/04/12 11:04:14;;;;;;;5.88;2.15;;;9.90;99.90;;;;;;5018663;28;20074;-68
2023/04/12 11:06:52;;;;;;;7.80;3.17;;;9.80;99.90;;;;;;5016748;28;20029;-69
2023/04/12 11:09:27;;;;;;;5.97;2.35;;;9.80;99.90;;;;;;5022170;28;20577;-69
2023/04/12 11:12:05;;;;;;;7.32;2.63;;;9.70;99.90;;;;;;5030176;28;20440;-69
2023/04/12 11:14:47;;;;;;;8.00;2.83;;;9.60;99.90;;;;;;5020153;28;20026;-70
2023/04/12 11:17:16;;;;;;;7.03;2.47;;;9.50;99.90;;;;;;5000852;28;20109;-69
2023/04/12 11:19:44;;;;;;;7.47;2.92;;;9.40;99.90;;;;;;5019442;28;20033;-68
2023/04/12 11:22:12;;;;;;;6.93;3.00;;;9.30;99.90;;;;;;5018567;28;20030;-69
2023/04/12 11:24:49;;;;;;;7.32;3.10;;;9.30;99.90;;;;;;5015900;28;20417;-69
2023/04/12 11:27:16;;;;;;;8.00;2.25;;;9.20;99.90;;;;;;5033858;28;20490;-70
2023/04/12 11:29:42;;;;;;;6.47;2.58;;;9.20;99.90;;;;;;5019134;28;20106;-69
2023/04/12 11:32:13;;;;;;;7.93;2.92;;;9.20;99.90;;;;;;5006984;28;20030;-69
2023/04/12 11:34:40;;;;;;;9.15;3.40;;;9.10;99.90;;;;;;5020637;28;20513;-71
2023/04/12 11:37:08;;;;;;;8.18;3.22;;;9.10;99.90;;;;;;5011342;28;20072;-70
2023/04/12 11:39:42;;;;;;;10.23;3.10;;;9.00;99.90;;;;;;5016021;28;20597;-70
2023/04/12 11:42:20;;;;;;;8.02;3.13;;;9.00;99.90;;;;;;5017615;28;20037;-71
2023/04/12 11:44:47;;;;;;;9.65;3.38;;;8.90;99.90;;;;;;5017812;28;20034;-70
2023/04/12 11:47:20;;;;;;;8.27;3.17;;;9.00;99.90;;;;;;5020014;28;20034;-71
2023/04/12 11:49:52;;;;;;;9.35;3.50;;;8.90;99.90;;;;;;5018850;28;20117;-70
2023/04/12 11:52:19;;;;;;;6.10;3.13;;;8.90;99.90;;;;;;5017352;28;20037;-68
2023/04/12 11:54:47;;;;;;;6.80;3.40;;;8.80;99.90;;;;;;5048768;28;20121;-68
2023/04/12 11:57:15;;;;;;;8.82;3.05;;;8.80;99.90;;;;;;5016966;28;20022;-68
2023/04/12 11:59:46;;;;;;;10.40;3.45;;;8.80;99.90;;;;;;5018297;28;20486;-68
2023/04/12 12:02:13;;;;;;;10.43;3.28;;;8.80;99.90;;;;;;5016829;28;20052;-68
2023/04/12 12:04:41;;;;;;;6.47;3.33;;;8.80;99.90;;;;;;5018770;28;20060;-68
2023/04/12 12:07:09;;;;;;;11.15;4.65;;;8.90;99.90;;;;;;5014338;28;20065;-68
2023/04/12 12:09:35;;;;;;;10.40;3.53;;;8.90;99.90;;;;;;5017974;28;20454;-69
2023/04/12 12:12:01;;;;;;;663.42;359.05;;;9.00;99.90;;;;;;5015672;28;20029;-69
2023/04/12 12:14:28;;;;;;;144.52;79.03;;;9.10;99.90;;;;;;5018163;28;20028;-68
2023/04/12 12:16:58;;;;;;;977.88;549.38;;;9.10;99.90;;;;;;5017939;28;20026;-68
2023/04/12 12:19:32;;;;;;;95.63;66.60;;;9.10;99.90;;;;;;5013082;28;20022;-68
2023/04/12 12:22:24;;;;;;;12.45;6.57;;;9.10;99.90;;;;;;5018320;28;20061;-68
2023/04/12 12:24:58;;;;;;;8.13;3.85;;;9.10;99.90;;;;;;5016587;28;20077;-70
2023/04/12 12:27:37;;;;;;;11.98;4.20;;;9.10;99.90;;;;;;5014704;28;20382;-69
2023/04/12 12:30:06;;;;;;;6.85;3.55;;;9.00;99.90;;;;;;5015393;28;20113;-69
2023/04/12 12:32:36;;;;;;;7.05;3.65;;;9.00;99.90;;;;;;5017044;28;20128;-68
2023/04/12 12:35:07;;;;;;;5.70;3.58;;;8.90;99.90;;;;;;5016473;28;20065;-68
2023/04/12 12:37:33;;;;;;;8.38;3.78;;;8.90;99.90;;;;;;5015585;28;20033;-68
2023/04/12 12:40:15;;;;;;;7.78;3.53;;;8.90;99.90;;;;;;5015420;28;20029;-69
2023/04/12 12:42:53;;;;;;;8.75;3.38;;;8.80;99.90;;;;;;5015060;28;20200;-69
2023/04/12 12:45:20;;;;;;;6.82;4.05;;;8.80;99.90;;;;;;5017991;28;20038;-69
2023/04/12 12:47:48;;;;;;;6.97;4.00;;;8.90;99.90;;;;;;5015858;28;20593;-68
2023/04/12 12:50:16;;;;;;;6.82;3.90;;;8.90;99.90;;;;;;5014544;28;20514;-68
2023/04/12 12:52:45;;;;;;;9.70;4.47;;;8.90;99.90;;;;;;5016762;28;20037;-68
2023/04/12 12:55:12;;;;;;;8.88;4.53;;;8.90;99.90;;;;;;5012134;28;20548;-69
2023/04/12 12:57:38;;;;;;;9.25;5.05;;;8.90;99.90;;;;;;4997743;28;20116;-69
2023/04/12 13:00:05;;;;;;;8.50;4.47;;;8.90;99.90;;;;;;5014444;28;20116;-69
2023/04/12 13:02:31;;;;;;;7.43;5.18;;;8.90;99.90;;;;;;5013294;28;20021;-68